Time;durP1;ratioP1;P1;durP2;ratioP2;P2;SDS_P1;SDS_P2;PMS_P1;PMS_P2;Temp;Humidity;BMP_temperature;BMP_pressure;BME280_temperature;BME280_humidity;BME280_pressure;Samples;Min_cycle;Max_cycle;Signal;HPM_P1;HPM_P2
2023/04/15 00:00:38;;;;;;;;;;;;;;;20.73;53.21;100105.41;5055653;28;2867;-68
2023/04/15 00:03:05;;;;;;;;;;;;;;;20.73;53.31;100100.41;5061133;28;2975;-67
2023/04/15 00:05:32;;;;;;;;;;;;;;;20.73;53.41;100094.66;5058647;28;2989;-67
2023/04/15 00:08:00;;;;;;;;;;;;;;;20.71;53.32;100098.19;5063128;28;2665;-68
2023/04/15 00:10:26;;;;;;;;;;;;;;;20.70;53.16;100093.09;5062504;28;2721;-67
2023/04/15 00:12:52;;;;;;;;;;;;;;;20.71;53.24;100091.72;5053534;28;2909;-68
2023/04/15 00:15:19;;;;;;;;;;;;;;;20.70;53.36;100085.19;5064071;28;2877;-67
2023/04/15 00:17:45;;;;;;;;;;;;;;;20.71;53.38;100091.72;5061185;28;2444;-68
2023/04/15 00:20:12;;;;;;;;;;;;;;;20.70;53.43;100093.81;5061792;28;2877;-67
2023/04/15 00:22:38;;;;;;;;;;;;;;;20.69;53.37;100091.63;5052114;28;2789;-68
2023/04/15 00:25:05;;;;;;;;;;;;;;;20.68;53.23;100093.03;5059848;28;2823;-68
2023/04/15 00:27:31;;;;;;;;;;;;;;;20.67;53.46;100080.06;5056077;28;2706;-67
2023/04/15 00:29:57;;;;;;;;;;;;;;;20.68;53.33;100075.78;5061057;28;2592;-68
2023/04/15 00:32:24;;;;;;;;;;;;;;;20.67;53.24;100068.56;5058752;28;2696;-68
2023/04/15 00:34:50;;;;;;;;;;;;;;;20.67;53.29;100066.41;5078263;28;2711;-68
2023/04/15 00:37:17;;;;;;;;;;;;;;;20.66;53.17;100072.81;5072441;28;2909;-68
2023/04/15 00:39:44;;;;;;;;;;;;;;;20.66;53.26;100072.81;5052353;28;2871;-68
2023/04/15 00:42:10;;;;;;;;;;;;;;;20.65;53.35;100077.13;5057916;28;2701;-68
2023/04/15 00:44:38;;;;;;;;;;;;;;;20.65;53.41;100080.00;5054746;28;2906;-68
2023/04/15 00:47:04;;;;;;;;;;;;;;;20.65;53.24;100069.22;5059866;28;2593;-67
2023/04/15 00:49:31;;;;;;;;;;;;;;;20.65;53.40;100071.38;5052336;28;2784;-68
2023/04/15 00:51:57;;;;;;;;;;;;;;;20.64;53.42;100069.91;5060645;28;2744;-68
2023/04/15 00:54:23;;;;;;;;;;;;;;;20.63;53.51;100071.28;5058498;28;2757;-68
2023/04/15 00:56:50;;;;;;;;;;;;;;;20.64;53.47;100072.78;5043466;28;2736;-67
2023/04/15 00:59:16;;;;;;;;;;;;;;;20.63;53.39;100065.53;5058459;28;2932;-68
2023/04/15 01:01:42;;;;;;;;;;;;;;;20.63;53.47;100074.91;5054249;28;2629;-68
2023/04/15 01:04:10;;;;;;;;;;;;;;;20.63;53.26;100074.16;5032646;28;2996;-67
2023/04/15 01:06:36;;;;;;;;;;;;;;;20.64;53.34;100069.91;5060217;28;2722;-67
2023/04/15 01:09:03;;;;;;;;;;;;;;;20.67;53.13;100075.03;5059855;28;2762;-67
2023/04/15 01:11:29;;;;;;;;;;;;;;;20.67;53.72;100057.78;5059919;28;2856;-67
2023/04/15 01:13:57;;;;;;;;;;;;;;;20.68;53.68;100064.25;5059466;28;2519;-68
2023/04/15 01:16:24;;;;;;;;;;;;;;;20.69;53.75;100071.50;5051137;28;3074;-68
2023/04/15 01:18:51;;;;;;;;;;;;;;;20.67;53.78;100072.16;5039892;28;2545;-67
2023/04/15 01:21:18;;;;;;;;;;;;;;;20.66;53.73;100064.19;5059743;28;2291;-68
2023/04/15 01:23:46;;;;;;;;;;;;;;;20.65;53.51;100062.72;5060527;28;2571;-68
2023/04/15 01:26:12;;;;;;;;;;;;;;;20.64;53.47;100064.16;5060382;28;2667;-68
2023/04/15 01:28:38;;;;;;;;;;;;;;;20.62;53.62;100066.97;5053931;28;2675;-68
2023/04/15 01:31:06;;;;;;;;;;;;;;;20.61;53.44;100062.59;5046222;28;3086;-68
2023/04/15 01:33:35;;;;;;;;;;;;;;;20.61;53.60;100071.22;5058636;28;2807;-68
2023/04/15 01:36:02;;;;;;;;;;;;;;;20.60;53.81;100069.75;5062848;28;2314;-68
2023/04/15 01:38:28;;;;;;;;;;;;;;;20.59;53.73;100057.53;5050699;28;2877;-68
2023/04/15 01:40:55;;;;;;;;;;;;;;;20.59;53.48;100053.91;5052405;28;2522;-68
2023/04/15 01:43:23;;;;;;;;;;;;;;;20.60;53.58;100047.50;5070217;28;3055;-68
2023/04/15 01:45:50;;;;;;;;;;;;;;;20.60;53.74;100059.00;5057902;28;2686;-68
2023/04/15 01:48:16;;;;;;;;;;;;;;;20.59;53.75;100051.78;5061073;28;2731;-68
2023/04/15 02:14:53;;;;;;;;;;;;;;;20.57;53.24;100043.09;5037351;28;2735;-68
2023/04/15 02:18:12;;;;;;;;;;;;;;;;;;;;;
2023/04/15 02:21:07;;;;;;;;;;;;;;;20.54;53.43;100032.88;5063410;28;2885;-68
2023/04/15 02:24:04;;;;;;;;;;;;;;;20.51;53.62;100026.31;5083702;28;2393;-68
2023/04/15 02:27:22;;;;;;;;;;;;;;;20.54;53.71;100032.88;5061263;28;2806;-68
2023/04/15 02:30:10;;;;;;;;;;;;;;;20.53;53.55;100036.44;5065885;28;2707;-68
2023/04/15 02:33:20;;;;;;;;;;;;;;;20.54;53.39;100038.63;5065375;28;2723;-68
2023/04/15 02:36:20;;;;;;;;;;;;;;;20.54;53.46;100038.63;5078646;28;2544;-68
2023/04/15 02:39:11;;;;;;;;;;;;;;;20.54;53.42;100035.03;5069511;28;2433;-68
2023/04/15 02:42:36;;;;;;;;;;;;;;;;;;;;;
2023/04/15 02:45:36;;;;;;;;;;;;;;;20.50;53.38;100027.75;5066372;28;2718;-68
2023/04/15 02:48:32;;;;;;;;;;;;;;;20.50;53.38;100033.50;5054054;28;2882;-68
2023/04/15 02:51:27;;;;;;;;;;;;;;;20.50;53.31;100039.25;5063986;28;2863;-68
2023/04/15 02:54:56;;;;;;;;;;;;;;;;;;;;;
2023/04/15 02:57:58;;;;;;;;;;;;;;;20.56;53.55;100035.84;5063168;28;2738;-68
2023/04/15 03:01:22;;;;;;;;;;;;;;;20.59;53.38;100042.41;5066361;28;2564;-68
2023/04/15 03:04:44;;;;;;;;;;;;;;;20.61;53.62;100033.84;5063350;28;2988;-67
2023/04/15 03:08:21;;;;;;;;;;;;;;;;;;;;;
2023/04/15 03:11:34;;;;;;;;;;;;;;;20.64;53.44;100044.75;5078934;28;2730;-68
2023/04/15 03:14:27;;;;;;;;;;;;;;;20.62;53.49;100044.69;5065267;28;2903;-69
2023/04/15 03:21:05;;;;;;;;;;;;;;;20.63;53.56;100028.16;5059947;28;2797;-67
2023/04/15 03:24:05;;;;;;;;;;;;;;;20.64;53.50;100035.38;5062378;28;3004;-69
2023/04/15 03:26:58;;;;;;;;;;;;;;;20.64;53.31;100035.38;5065892;28;1876;-68
2023/04/15 03:32:58;;;;;;;;;;;;;;;;;;;;;
2023/04/15 03:36:23;;;;;;;;;;;;;;;20.68;53.24;100038.38;5061455;28;2882;-69
2023/04/15 03:39:56;;;;;;;;;;;;;;;;;;;;;
2023/04/15 03:43:22;;;;;;;;;;;;;;;20.70;53.32;100038.44;5064576;28;2887;-68
2023/04/15 03:46:53;;;;;;;;;;;;;;;20.68;53.19;100039.13;5065439;28;2877;-68
2023/04/15 03:50:01;;;;;;;;;;;;;;;;;;;;;
2023/04/15 03:57:07;;;;;;;;;;;;;;;20.69;53.00;100031.22;5063334;28;2494;-68
2023/04/15 04:00:06;;;;;;;;;;;;;;;20.70;53.03;100032.69;5059792;28;2828;-68
2023/04/15 04:03:03;;;;;;;;;;;;;;;;;;;;;
2023/04/15 04:06:05;;;;;;;;;;;;;;;20.70;53.47;100041.31;5062000;28;3092;-68
2023/04/15 04:08:55;;;;;;;;;;;;;;;20.68;53.29;100041.25;5059348;28;2813;-68
2023/04/15 04:11:33;;;;;;;;;;;;;;;20.69;53.35;100045.63;5065168;28;2893;-68
2023/04/15 04:14:59;;;;;;;;;;;;;;;20.70;53.48;100044.19;5063155;28;2938;-68
2023/04/15 04:18:12;;;;;;;;;;;;;;;20.71;53.21;100045.69;5056591;28;2981;-68
2023/04/15 04:21:25;;;;;;;;;;;;;;;20.72;53.21;100052.91;5064584;28;2800;-67
2023/04/15 04:28:55;;;;;;;;;;;;;;;20.73;53.07;100051.50;5060208;28;3385;-68
2023/04/15 04:32:23;;;;;;;;;;;;;;;20.74;53.30;100055.09;5061903;28;2695;-68
2023/04/15 04:35:38;;;;;;;;;;;;;;;;;;;;;
2023/04/15 04:38:34;;;;;;;;;;;;;;;20.71;52.96;100057.91;5063309;28;2855;-68
2023/04/15 04:41:47;;;;;;;;;;;;;;;20.72;53.29;100064.41;5060856;28;2932;-68
2023/04/15 04:44:43;;;;;;;;;;;;;;;20.72;53.37;100058.66;5062410;28;2857;-68
2023/04/15 04:48:07;;;;;;;;;;;;;;;20.72;53.19;100064.41;5016428;28;3437;-68
2023/04/15 04:50:56;;;;;;;;;;;;;;;20.73;53.15;100065.88;5018366;28;2912;-68
2023/04/15 04:53:40;;;;;;;;;;;;;;;20.74;53.18;100060.84;5021547;28;1752;-68
2023/04/15 04:56:51;;;;;;;;;;;;;;;20.75;53.29;100059.44;5013499;28;1829;-68
2023/04/15 04:59:58;;;;;;;;;;;;;;;20.76;53.33;100064.53;5023150;28;2862;-68
2023/04/15 05:03:06;;;;;;;;;;;;;;;20.76;53.11;100061.66;5014345;28;2950;-67
2023/04/15 05:06:32;;;;;;;;;;;;;;;20.76;53.17;100064.53;5017592;28;2970;-68
2023/04/15 05:10:05;;;;;;;;;;;;;;;20.76;53.32;100063.81;5008068;28;2572;-68
2023/04/15 05:13:37;;;;;;;;;;;;;;;20.75;53.17;100068.81;5022275;28;2664;-68
2023/04/15 05:16:47;;;;;;;;;;;;;;;20.76;53.26;100070.28;5014096;28;2964;-68
2023/04/15 05:20:04;;;;;;;;;;;;;;;;;;;;;
2023/04/15 05:23:26;;;;;;;;;;;;;;;20.75;53.31;100082.47;5021515;28;2347;-67
2023/04/15 05:26:50;;;;;;;;;;;;;;;20.76;53.41;100076.03;5018986;28;2892;-68
2023/04/15 05:33:59;;;;;;;;;;;;;;;;;;;;;
2023/04/15 05:37:12;;;;;;;;;;;;;;;20.78;52.96;100096.25;5023142;28;1778;-68
2023/04/15 05:40:34;;;;;;;;;;;;;;;;;;;;;
2023/04/15 05:47:19;;;;;;;;;;;;;;;20.79;53.21;100085.47;5019624;28;2727;-68
2023/04/15 05:50:05;;;;;;;;;;;;;;;;;;;;;
2023/04/15 05:53:15;;;;;;;;;;;;;;;20.79;53.01;100086.19;5021857;28;1857;-68
2023/04/15 05:56:23;;;;;;;;;;;;;;;;;;;;;
2023/04/15 05:59:24;;;;;;;;;;;;;;;20.78;52.94;100084.75;5020977;28;2886;-68
2023/04/15 06:02:16;;;;;;;;;;;;;;;20.79;53.01;100091.97;5021215;28;1826;-69
2023/04/15 06:05:14;;;;;;;;;;;;;;;;;;;;;
2023/04/15 06:08:56;;;;;;;;;;;;;;;;;;;;;
2023/04/15 06:12:13;;;;;;;;;;;;;;;;;;;;;
2023/04/15 06:15:21;;;;;;;;;;;;;;;20.82;53.17;100090.63;4988101;28;2653;-67
2023/04/15 06:26:31;;;;;;;;;;;;;;;20.84;53.58;100102.19;5010134;28;2447;-69
2023/04/15 06:28:58;;;;;;;;;;;;;;;20.84;54.25;100096.44;5012186;28;2737;-68
2023/04/15 06:31:25;;;;;;;;;;;;;;;20.74;53.63;100095.38;5018436;28;2784;-63
2023/04/15 06:33:52;;;;;;;;;;;;;;;18.97;53.41;100096.88;5016118;28;2510;-60
2023/04/15 06:36:18;;;;;;;;;;;;;;;18.50;54.17;100092.06;5021943;28;1755;-60
2023/04/15 06:38:45;;;;;;;;;;;;;;;17.64;55.04;100086.22;5018259;28;2772;-59
2023/04/15 06:41:11;;;;;;;;;;;;;;;17.42;55.30;100091.66;5015364;28;2653;-61
2023/04/15 06:43:38;;;;;;;;;;;;;;;16.61;57.00;100091.38;5015008;28;2911;-59
2023/04/15 06:46:04;;;;;;;;;;;;;;;16.49;57.50;100103.69;5015832;28;2748;-59
2023/04/15 06:48:31;;;;;;;;;;;;;;;16.68;56.79;100105.31;5018457;28;2846;-59
2023/04/15 06:50:57;;;;;;;;;;;;;;;16.58;57.08;100104.06;5020184;28;2811;-60
2023/04/15 06:53:25;;;;;;;;;;;;;;;16.98;56.07;100105.34;5018041;28;2886;-60
2023/04/15 06:55:52;;;;;;;;;;;;;;;17.30;55.32;100111.16;5022409;28;2528;-59
2023/04/15 06:58:18;;;;;;;;;;;;;;;17.28;55.15;100111.78;5023425;28;2797;-59
2023/04/15 07:00:44;;;;;;;;;;;;;;;17.20;55.39;100119.22;5034507;28;2897;-60
2023/04/15 07:03:11;;;;;;;;;;;;;;;17.90;53.92;100117.47;5064778;28;2900;-64
2023/04/15 07:05:38;;;;;;;;;;;;;;;18.36;53.05;100121.59;5061519;28;2619;-62
2023/04/15 07:08:05;;;;;;;;;;;;;;;18.65;52.39;100122.81;5063260;28;2748;-74
2023/04/15 07:10:35;;;;;;;;;;;;;;;19.11;51.38;100119.66;5066209;28;2900;-72
2023/04/15 07:13:01;;;;;;;;;;;;;;;19.35;51.16;100131.34;5060109;28;3161;-67
2023/04/15 07:15:28;;;;;;;;;;;;;;;19.48;51.08;100133.31;5059765;28;2627;-66
2023/04/15 07:17:55;;;;;;;;;;;;;;;19.57;51.02;100135.09;5064074;28;2264;-67
2023/04/15 07:20:21;;;;;;;;;;;;;;;19.67;51.22;100137.59;5067404;28;1807;-67
2023/04/15 07:22:48;;;;;;;;;;;;;;;19.72;51.21;100139.25;5066434;28;1766;-67
2023/04/15 07:25:14;;;;;;;;;;;;;;;19.78;51.20;100136.63;5065316;28;2142;-67
2023/04/15 07:27:41;;;;;;;;;;;;;;;19.78;51.15;100144.50;5064300;28;2530;-67
2023/04/15 07:30:08;;;;;;;;;;;;;;;19.82;51.44;100138.91;5066256;28;2616;-67
2023/04/15 07:32:34;;;;;;;;;;;;;;;19.81;51.32;100146.81;5064002;28;2402;-67
2023/04/15 07:35:02;;;;;;;;;;;;;;;19.85;51.32;100152.66;5065759;28;2640;-67
2023/04/15 07:37:28;;;;;;;;;;;;;;;19.88;51.51;100156.34;5065478;28;2576;-67
2023/04/15 07:39:55;;;;;;;;;;;;;;;19.94;51.44;100153.72;5067183;28;1714;-67
2023/04/15 07:42:21;;;;;;;;;;;;;;;19.98;51.49;100153.88;5066710;28;1852;-67
2023/04/15 07:44:48;;;;;;;;;;;;;;;19.99;51.45;100155.31;5062895;28;1822;-67
2023/04/15 07:47:14;;;;;;;;;;;;;;;20.01;51.68;100155.41;5064771;28;2648;-67
2023/04/15 07:49:42;;;;;;;;;;;;;;;20.05;51.71;100151.97;5065775;28;1759;-67
2023/04/15 07:52:08;;;;;;;;;;;;;;;20.06;51.51;100159.16;5067167;28;1918;-67
2023/04/15 07:54:34;;;;;;;;;;;;;;;20.14;51.59;100155.88;5066569;28;2024;-67
2023/04/15 07:57:02;;;;;;;;;;;;;;;20.14;51.78;100161.63;5061061;28;2863;-69
2023/04/15 07:59:28;;;;;;;;;;;;;;;19.76;51.60;100153.03;5052292;28;2796;-74
2023/04/15 08:01:55;;;;;;;;;;;;;;;19.88;51.85;100162.09;5054967;28;3139;-68
2023/04/15 08:04:21;;;;;;;;;;;;;;;20.03;51.73;100161.22;5058144;28;2808;-66
2023/04/15 08:06:49;;;;;;;;;;;;;;;20.11;51.39;100160.06;5059721;28;2933;-65
2023/04/15 08:09:15;;;;;;;;;;;;;;;19.96;51.57;100168.16;5063985;28;2963;-66
2023/04/15 08:11:41;;;;;;;;;;;;;;;19.97;51.70;100161.00;5062097;28;2832;-64
2023/04/15 08:14:08;;;;;;;;;;;;;;;20.14;51.49;100158.75;5053084;28;2862;-66
2023/04/15 08:16:34;;;;;;;;;;;;;;;20.19;51.52;100172.59;5053125;28;2977;-66
2023/04/15 08:19:01;;;;;;;;;;;;;;;20.23;51.49;100166.25;5056887;28;2903;-65
2023/04/15 08:21:29;;;;;;;;;;;;;;;20.27;51.55;100172.13;5059360;28;2795;-64
2023/04/15 08:23:56;;;;;;;;;;;;;;;20.27;51.54;100172.13;5050018;28;3022;-62
2023/04/15 08:26:22;;;;;;;;;;;;;;;19.72;52.17;100173.72;5054893;28;2752;-68
2023/04/15 08:28:48;;;;;;;;;;;;;;;19.89;52.29;100180.81;5060756;28;2646;-67
2023/04/15 08:31:15;;;;;;;;;;;;;;;20.13;51.89;100180.25;5060050;28;2550;-68
2023/04/15 08:33:41;;;;;;;;;;;;;;;20.23;51.86;100172.00;5061077;28;2304;-68
2023/04/15 08:36:08;;;;;;;;;;;;;;;20.27;52.09;100183.63;5054631;28;2764;-68
2023/04/15 08:38:35;;;;;;;;;;;;;;;20.32;51.90;100179.53;5064739;28;2118;-67
2023/04/15 08:41:11;;;;;;;;;;;;;;;20.36;51.83;100178.91;5064904;28;2554;-67
2023/04/15 08:43:43;;;;;;;;;;;;;;;20.39;51.99;100186.22;5065405;28;2262;-68
2023/04/15 08:46:09;;;;;;;;;;;;;;;20.41;52.02;100195.66;5060033;28;2814;-67
2023/04/15 08:48:35;;;;;;;;;;;;;;;20.42;52.10;100194.25;5058671;28;2749;-67
2023/04/15 08:51:02;;;;;;;;;;;;;;;20.44;52.18;100202.94;5061547;28;2583;-67
2023/04/15 08:53:28;;;;;;;;;;;;;;;20.46;52.41;100199.41;5061142;28;2558;-67
2023/04/15 08:55:55;;;;;;;;;;;;;;;20.46;52.38;100193.66;5061739;28;2590;-66
2023/04/15 08:58:21;;;;;;;;;;;;;;;20.47;52.19;100198.00;5060750;28;2663;-67
2023/04/15 09:00:47;;;;;;;;;;;;;;;20.47;52.33;100201.59;5059447;28;1979;-71
2023/04/15 09:03:14;;;;;;;;;;;;;;;20.52;52.18;100202.47;5055259;28;2641;-71
2023/04/15 09:05:41;;;;;;;;;;;;;;;20.50;52.28;100206.06;5055290;28;2806;-71
2023/04/15 09:08:07;;;;;;;;;;;;;;;20.50;52.31;100202.41;5052845;28;2726;-71
2023/04/15 09:10:34;;;;;;;;;;;;;;;20.50;52.22;100202.41;5059281;28;3244;-71
2023/04/15 09:13:00;;;;;;;;;;;;;;;20.50;52.41;100211.78;5061191;28;2616;-70
2023/04/15 09:15:28;;;;;;;;;;;;;;;20.63;52.14;100210.09;5050668;28;4483;-62
2023/04/15 09:17:55;;;;;;;;;;;;;;;20.76;52.53;100214.16;5057070;28;4605;-63
2023/04/15 09:20:22;;;;;;;;;;;;;;;20.99;52.25;100217.78;5062312;28;2791;-63
2023/04/15 09:22:48;;;;;;;;;;;;;;;21.08;52.02;100214.50;5052417;28;2835;-63
2023/04/15 09:25:15;;;;;;;;;;;;;;;20.97;52.00;100215.56;5058487;28;2845;-64
2023/04/15 09:27:51;;;;;;;;;;;;;;;21.06;52.05;100216.59;5058044;28;2923;-63
2023/04/15 09:30:21;;;;;;;;;;;;;;;21.20;51.88;100213.44;5059610;28;2978;-67
2023/04/15 09:32:50;;;;;;;;;;;;;;;21.14;52.19;100216.84;5059998;28;2930;-67
2023/04/15 09:35:17;;;;;;;;;;;;;;;21.20;52.00;100216.31;5056771;28;3042;-66
2023/04/15 09:37:43;;;;;;;;;;;;;;;21.17;52.25;100221.28;5060341;28;4376;-65
2023/04/15 09:40:10;;;;;;;;;;;;;;;21.02;52.11;100227.97;5053375;28;4012;-62
2023/04/15 09:42:39;;;;;;;;;;;;;;;20.89;52.40;100227.56;5058543;28;2499;-64
2023/04/15 09:45:12;;;;;;;;;;;;;;;20.83;52.40;100221.59;5061639;28;3141;-64
2023/04/15 09:47:38;;;;;;;;;;;;;;;20.78;52.57;100234.38;5061603;28;2455;-66
2023/04/15 09:50:05;;;;;;;;;;;;;;;20.81;52.46;100238.03;5064364;28;2656;-65
2023/04/15 09:52:31;;;;;;;;;;;;;;;20.80;52.55;100243.06;5063762;28;2597;-65
2023/04/15 09:54:58;;;;;;;;;;;;;;;20.79;52.56;100241.56;5059537;28;2640;-65
2023/04/15 09:57:24;;;;;;;;;;;;;;;20.78;52.83;100248.00;5059271;28;2654;-65
2023/04/15 09:59:50;;;;;;;;;;;;;;;20.76;52.86;100237.16;5061409;28;2600;-65
2023/04/15 10:02:17;;;;;;;;;;;;;;;20.76;52.85;100245.06;5059621;28;2867;-64
2023/04/15 10:04:43;;;;;;;;;;;;;;;20.75;52.83;100257.97;5064054;28;2832;-64
2023/04/15 10:07:11;;;;;;;;;;;;;;;20.72;53.00;100248.53;5055627;28;2621;-70
2023/04/15 10:09:37;;;;;;;;;;;;;;;19.92;52.63;100251.34;5050220;28;2759;-64
2023/04/15 10:12:03;;;;;;;;;;;;;;;20.12;52.17;100259.25;5059725;28;2664;-64
2023/04/15 10:14:31;;;;;;;;;;;;;;;20.24;51.85;100257.56;5063118;28;2681;-63
2023/04/15 10:16:58;;;;;;;;;;;;;;;20.40;51.49;100254.56;5062267;28;2538;-64
2023/04/15 10:19:24;;;;;;;;;;;;;;;20.49;51.31;100264.94;5055170;28;2687;-64
2023/04/15 10:21:50;;;;;;;;;;;;;;;20.55;51.53;100260.81;5059896;28;2745;-63
2023/04/15 10:24:17;;;;;;;;;;;;;;;20.55;52.28;100269.44;5051705;28;2641;-61
2023/04/15 10:26:43;;;;;;;;;;;;;;;20.62;52.18;100268.31;5062733;28;2545;-62
2023/04/15 10:29:09;;;;;;;;;;;;;;;20.80;54.88;100266.09;5058902;28;2681;-69
2023/04/15 10:31:37;;;;;;;;;;;;;;;20.83;52.71;100269.75;5064500;28;2633;-61
2023/04/15 10:34:05;;;;;;;;;;;;;;;20.78;52.95;100266.00;5067880;28;2732;-62
2023/04/15 10:36:32;;;;;;;;;;;;;;;20.71;53.26;100270.09;5064241;28;2441;-59
2023/04/15 10:38:58;;;;;;;;;;;;;;;20.77;53.06;100278.19;5064596;28;2672;-61
2023/04/15 10:41:25;;;;;;;;;;;;;;;20.76;53.87;100270.97;5063517;28;2664;-60
2023/04/15 10:43:56;;;;;;;;;;;;;;;20.75;53.81;100275.94;5063507;28;2673;-61
2023/04/15 10:46:24;;;;;;;;;;;;;;;20.74;53.90;100283.13;5064571;28;2732;-60
2023/04/15 10:48:51;;;;;;;;;;;;;;;20.75;53.53;100280.97;5063677;28;2886;-61
2023/04/15 10:51:36;;;;;;;;;;;;;;;20.74;53.90;100283.13;5062686;28;2680;-59
2023/04/15 10:54:03;;;;;;;;;;;;;;;20.11;53.55;100287.25;5064897;28;2463;-59
2023/04/15 10:56:30;;;;;;;;;;;;;;;19.60;53.40;100277.34;5067392;28;3001;-63
2023/04/15 10:59:00;;;;;;;;;;;;;;;19.92;52.64;100282.22;5068741;28;2622;-61
2023/04/15 11:01:46;;;;;;;;;;;;;;;20.24;53.25;100288.47;5058565;28;2615;-61
2023/04/15 11:04:13;;;;;;;;;;;;;;;20.50;52.80;100285.81;5064159;28;2652;-59
2023/04/15 11:06:48;;;;;;;;;;;;;;;21.00;57.35;100285.44;5048777;28;2672;-78
2023/04/15 11:09:29;;;;;;;;;;;;;;;21.15;55.44;100296.06;5049359;28;3347;-73
2023/04/15 11:12:08;;;;;;;;;;;;;;;21.29;54.96;100290.78;5064417;28;2841;-75
2023/04/15 11:14:42;;;;;;;;;;;;;;;21.27;53.82;100293.56;5059877;28;2542;-74
2023/04/15 11:17:11;;;;;;;;;;;;;;;21.12;54.29;100292.38;5060544;28;2814;-73
2023/04/15 11:19:37;;;;;;;;;;;;;;;21.18;54.16;100291.84;5061220;28;2686;-82
2023/04/15 11:22:10;;;;;;;;;;;;;;;21.19;54.20;100299.06;5062381;28;2840;-79
2023/04/15 11:24:45;;;;;;;;;;;;;;;21.25;54.16;100301.41;5059106;28;2971;-78
2023/04/15 11:27:22;;;;;;;;;;;;;;;21.25;53.88;100313.66;5059876;28;2819;-73
2023/04/15 11:29:48;;;;;;;;;;;;;;;21.46;53.74;100314.38;5054920;28;2827;-72
2023/04/15 11:32:15;;;;;;;;;;;;;;;21.51;53.32;100316.00;5061399;28;2848;-69
2023/04/15 11:34:44;;;;;;;;;;;;;;;21.47;52.69;100322.34;5063046;28;2920;-69
2023/04/15 11:37:10;;;;;;;;;;;;;;;21.67;53.02;100316.53;5056805;28;2741;-70
2023/04/15 11:39:36;;;;;;;;;;;;;;;21.60;52.68;100317.75;5055804;28;2789;-67
2023/04/15 11:42:03;;;;;;;;;;;;;;;21.27;53.50;100318.75;5064123;28;2773;-67
2023/04/15 11:44:29;;;;;;;;;;;;;;;21.42;53.21;100322.91;5058619;28;2844;-71
2023/04/15 11:46:56;;;;;;;;;;;;;;;21.49;53.12;100324.56;5056508;28;2874;-69
2023/04/15 11:49:29;;;;;;;;;;;;;;;21.39;53.06;100327.06;5053361;28;2658;-65
2023/04/15 11:51:56;;;;;;;;;;;;;;;21.23;53.05;100328.00;5062977;28;3088;-66
2023/04/15 11:54:22;;;;;;;;;;;;;;;21.18;52.69;100332.13;5056440;28;5233;-67
2023/04/15 11:56:49;;;;;;;;;;;;;;;21.12;53.01;100329.06;5057433;28;2687;-68
2023/04/15 11:59:15;;;;;;;;;;;;;;;21.04;53.44;100331.66;5061998;28;2741;-62
2023/04/15 12:01:42;;;;;;;;;;;;;;;21.02;53.45;100334.44;5057526;28;2630;-62
2023/04/15 12:04:12;;;;;;;;;;;;;;;20.96;53.60;100343.63;5055217;28;2982;-64
2023/04/15 12:06:40;;;;;;;;;;;;;;;21.03;53.68;100341.69;5057188;28;2866;-60
2023/04/15 12:09:07;;;;;;;;;;;;;;;20.98;53.66;100354.44;5058094;28;2775;-63
2023/04/15 12:11:37;;;;;;;;;;;;;;;20.44;54.01;100346.75;5066333;28;1906;-64
2023/04/15 12:14:04;;;;;;;;;;;;;;;20.60;53.67;100346.63;5065159;28;1849;-64
2023/04/15 12:16:32;;;;;;;;;;;;;;;20.75;53.61;100350.75;5064036;28;2653;-64
2023/04/15 12:19:05;;;;;;;;;;;;;;;20.84;53.38;100358.28;5065730;28;1635;-63
2023/04/15 12:21:33;;;;;;;;;;;;;;;20.90;53.40;100347.00;5061013;28;2612;-63
2023/04/15 12:24:03;;;;;;;;;;;;;;;20.94;53.27;100355.06;5067072;28;1703;-63
2023/04/15 12:26:34;;;;;;;;;;;;;;;20.96;53.27;100357.25;5066508;28;1583;-63
2023/04/15 12:29:01;;;;;;;;;;;;;;;20.98;53.13;100357.34;5063170;28;1663;-63
2023/04/15 12:31:27;;;;;;;;;;;;;;;20.98;53.76;100360.22;5058247;28;2652;-63
2023/04/15 12:33:54;;;;;;;;;;;;;;;20.99;54.19;100362.44;5066744;28;1815;-63
2023/04/15 12:36:20;;;;;;;;;;;;;;;20.98;53.74;100360.97;5061069;28;2618;-63
2023/04/15 12:38:47;;;;;;;;;;;;;;;20.99;53.83;100373.94;5060322;28;2681;-63
2023/04/15 12:41:13;;;;;;;;;;;;;;;20.98;53.53;100371.72;5063735;28;2388;-63
2023/04/15 12:43:39;;;;;;;;;;;;;;;20.98;53.68;100371.72;5066797;28;1656;-64
2023/04/15 12:46:07;;;;;;;;;;;;;;;20.99;53.94;100367.47;5062728;28;2669;-63
2023/04/15 12:48:33;;;;;;;;;;;;;;;20.98;54.16;100371.72;5061921;28;2613;-63
2023/04/15 12:51:00;;;;;;;;;;;;;;;20.96;53.99;100381.03;5066685;28;1803;-63
2023/04/15 12:53:26;;;;;;;;;;;;;;;20.96;53.70;100374.53;5060146;28;1971;-63
2023/04/15 12:55:52;;;;;;;;;;;;;;;20.96;53.63;100391.78;5061129;28;2605;-63
2023/04/15 12:58:20;;;;;;;;;;;;;;;20.95;53.39;100384.56;5062630;28;3054;-63
2023/04/15 13:00:46;;;;;;;;;;;;;;;20.96;53.74;100391.78;5060668;28;2621;-63
2023/04/15 13:03:13;;;;;;;;;;;;;;;20.93;53.41;100388.84;5063086;28;1737;-64
2023/04/15 13:05:40;;;;;;;;;;;;;;;20.93;53.70;100391.00;5064398;28;2570;-63
2023/04/15 13:08:06;;;;;;;;;;;;;;;20.93;53.73;100393.88;5063542;28;3156;-63
2023/04/15 13:10:35;;;;;;;;;;;;;;;20.92;53.67;100386.66;5061924;28;2546;-63
2023/04/15 13:13:02;;;;;;;;;;;;;;;20.91;53.57;100397.44;5061877;28;2620;-64
2023/04/15 13:15:28;;;;;;;;;;;;;;;20.90;53.51;100401.69;5063387;28;2633;-63
2023/04/15 13:17:54;;;;;;;;;;;;;;;20.90;53.69;100393.06;5062085;28;2541;-64
2023/04/15 13:20:21;;;;;;;;;;;;;;;20.89;53.65;100400.22;5062495;28;2653;-63
2023/04/15 13:22:47;;;;;;;;;;;;;;;20.89;53.67;100405.97;5066790;28;1769;-63
2023/04/15 13:25:13;;;;;;;;;;;;;;;20.88;53.90;100398.00;5066237;28;1663;-64
2023/04/15 13:27:40;;;;;;;;;;;;;;;20.87;53.50;100405.91;5066597;28;1561;-63
2023/04/15 13:30:06;;;;;;;;;;;;;;;20.87;53.68;100402.28;5062692;28;2646;-63
2023/04/15 13:32:32;;;;;;;;;;;;;;;20.85;54.07;100405.09;5065775;28;2597;-63
2023/04/15 13:34:59;;;;;;;;;;;;;;;20.84;53.82;100401.44;5065827;28;1805;-63
2023/04/15 13:37:26;;;;;;;;;;;;;;;20.85;53.88;100405.09;5066981;28;1676;-64
2023/04/15 13:39:53;;;;;;;;;;;;;;;20.84;53.69;100412.22;5064037;28;2542;-63
2023/04/15 13:42:20;;;;;;;;;;;;;;;20.83;53.52;100420.13;5066909;28;1775;-63
2023/04/15 13:44:46;;;;;;;;;;;;;;;20.82;53.89;100417.91;5063322;28;2602;-63
2023/04/15 13:47:14;;;;;;;;;;;;;;;20.80;53.97;100415.72;5061767;28;2467;-64
2023/04/15 13:49:41;;;;;;;;;;;;;;;20.80;53.80;100421.47;5062567;28;2648;-63
2023/04/15 13:52:07;;;;;;;;;;;;;;;20.80;53.83;100420.72;5061253;28;2756;-63
2023/04/15 13:54:33;;;;;;;;;;;;;;;20.80;53.96;100430.09;5065572;28;1805;-64
2023/04/15 13:57:03;;;;;;;;;;;;;;;20.79;53.91;100425.00;5061544;28;2660;-63
2023/04/15 13:59:30;;;;;;;;;;;;;;;20.78;53.70;100426.41;5055589;28;2729;-63
2023/04/15 14:01:56;;;;;;;;;;;;;;;20.78;53.88;100427.16;5061195;28;2843;-63
2023/04/15 14:04:22;;;;;;;;;;;;;;;20.77;53.83;100440.03;5066397;28;2308;-63
2023/04/15 14:06:49;;;;;;;;;;;;;;;20.76;53.73;100432.09;5060673;28;2647;-63
2023/04/15 14:09:16;;;;;;;;;;;;;;;20.74;53.54;100435.63;5067344;28;1794;-63
2023/04/15 14:11:42;;;;;;;;;;;;;;;20.74;53.63;100441.38;5069042;28;1862;-63
2023/04/15 14:14:08;;;;;;;;;;;;;;;20.74;53.84;100441.38;5064771;28;2817;-63
2023/04/15 14:16:35;;;;;;;;;;;;;;;20.73;53.76;100439.91;5066192;28;2660;-63
2023/04/15 14:19:01;;;;;;;;;;;;;;;20.72;53.91;100444.16;5066365;28;2693;-63
2023/04/15 14:21:30;;;;;;;;;;;;;;;20.71;53.92;100454.22;5069884;28;1667;-63
2023/04/15 14:23:57;;;;;;;;;;;;;;;20.70;53.95;100450.56;5064623;28;2749;-63
2023/04/15 14:26:23;;;;;;;;;;;;;;;20.70;53.87;100447.69;5058170;28;2656;-63
2023/04/15 14:28:49;;;;;;;;;;;;;;;20.70;53.75;100455.59;5065704;28;2662;-63
2023/04/15 14:31:16;;;;;;;;;;;;;;;20.68;53.78;100464.16;5062952;28;2759;-63
2023/04/15 14:33:42;;;;;;;;;;;;;;;20.66;53.78;100467.69;5061653;28;2601;-63
2023/04/15 14:36:09;;;;;;;;;;;;;;;20.66;54.04;100469.81;5064899;28;2665;-63
2023/04/15 14:38:38;;;;;;;;;;;;;;;20.65;53.80;100468.34;5062170;28;2633;-63
2023/04/15 14:41:05;;;;;;;;;;;;;;;20.65;53.79;100474.84;5064074;28;2247;-63
2023/04/15 14:43:32;;;;;;;;;;;;;;;20.65;54.08;100479.84;5067944;28;2495;-64
2023/04/15 14:45:58;;;;;;;;;;;;;;;20.65;54.00;100488.50;5063704;28;3037;-63
2023/04/15 14:48:25;;;;;;;;;;;;;;;20.63;54.00;100483.38;5064352;28;2841;-63